Pine View, North Carolina
Current Conditions -  °F | °C
As of 12:55 PM on Thursday 23 Oct 2014 (Local Time) from KTTA Reporting Station
Clear Clear  
Wind Chill: 65°   Ceiling: Unl
Heat Index: 65°   Visibility: 10mi
Dew Point: 43°   Wind: 8mph
Humidity: 45%   Direction: 320°NW
Pressure: 30.01"   Gusts: NA
Location:  35.493°N, 79.1765°W
Report Text: KTTA 231655Z AUTO 32007KT 10SM CLR 18/06 A3001 RMK AO2 T01810059
Loading
Personal Weather Stations






























Interactive Weather Map
Tropical Storm Tracking
New forecast layout! Learn more

10-Day Weather Forecast

Advertisements
Track Severe Weather on mobile